createdAt,value
2019-04-29T00:00:01.615Z,6.31
2019-04-29T00:00:31.675Z,6.30
2019-04-29T00:01:01.623Z,6.33
2019-04-29T00:01:31.673Z,6.30
2019-04-29T00:02:01.623Z,6.31
2019-04-29T00:02:31.839Z,6.28
2019-04-29T00:03:01.627Z,6.30
2019-04-29T00:03:31.681Z,6.30
2019-04-29T00:04:02.161Z,6.27
2019-04-29T00:04:31.674Z,6.28
2019-04-29T00:05:01.628Z,6.27
2019-04-29T00:05:31.681Z,6.28
2019-04-29T00:06:01.617Z,6.28
2019-04-29T00:06:31.686Z,6.27
2019-04-29T00:07:01.618Z,6.27
2019-04-29T00:07:31.720Z,6.30
2019-04-29T00:08:01.618Z,6.28
2019-04-29T00:08:31.683Z,6.28
2019-04-29T00:09:01.621Z,6.27
2019-04-29T00:09:31.670Z,6.28
2019-04-29T00:10:01.625Z,6.30
2019-04-29T00:10:31.685Z,6.27
2019-04-29T00:11:01.623Z,6.26
2019-04-29T00:11:31.727Z,6.27
2019-04-29T00:12:01.617Z,6.26
2019-04-29T00:12:31.686Z,6.27
2019-04-29T00:13:01.626Z,6.24
2019-04-29T00:13:31.719Z,6.24
2019-04-29T00:14:01.621Z,6.23
2019-04-29T00:14:32.096Z,6.23
2019-04-29T00:15:01.619Z,6.24
2019-04-29T00:15:31.673Z,6.27
2019-04-29T00:16:01.617Z,6.24
2019-04-29T00:16:31.680Z,6.23
2019-04-29T00:17:01.629Z,6.23
2019-04-29T00:17:31.682Z,6.20
2019-04-29T00:18:01.619Z,6.23
2019-04-29T00:18:31.684Z,6.21
2019-04-29T00:19:01.627Z,6.21
2019-04-29T00:19:31.677Z,6.21
2019-04-29T00:20:01.622Z,6.23
2019-04-29T00:20:31.675Z,6.20
2019-04-29T00:21:01.636Z,6.18
2019-04-29T00:21:31.753Z,6.23
2019-04-29T00:22:01.624Z,6.21
2019-04-29T00:22:31.677Z,6.23
2019-04-29T00:23:01.630Z,6.21
2019-04-29T00:23:31.678Z,6.20
2019-04-29T00:24:03.750Z,6.18
2019-04-29T00:24:31.678Z,6.17
2019-04-29T00:25:02.632Z,6.20
2019-04-29T00:25:31.677Z,6.18
2019-04-29T00:26:01.639Z,6.17
2019-04-29T00:26:31.681Z,6.17
2019-04-29T00:27:01.633Z,6.17
2019-04-29T00:27:31.689Z,6.17
2019-04-29T00:28:01.721Z,6.17
2019-04-29T00:28:31.681Z,6.20
2019-04-29T00:29:01.670Z,6.23
2019-04-29T00:29:31.683Z,6.20
2019-04-29T00:30:01.664Z,6.18
2019-04-29T00:30:31.686Z,6.17
2019-04-29T00:31:01.637Z,6.18
2019-04-29T00:31:31.680Z,6.16
2019-04-29T00:32:01.641Z,6.18
2019-04-29T00:32:31.676Z,6.18
2019-04-29T00:33:01.637Z,6.20
2019-04-29T00:33:31.683Z,6.18
2019-04-29T00:34:01.623Z,6.18
2019-04-29T00:34:31.703Z,6.17
2019-04-29T00:35:01.624Z,6.16
2019-04-29T00:35:32.159Z,6.17
2019-04-29T00:36:01.631Z,6.18
2019-04-29T00:36:31.763Z,6.17
2019-04-29T00:37:01.634Z,6.17
2019-04-29T00:37:31.683Z,6.17
2019-04-29T00:38:01.627Z,6.18
2019-04-29T00:38:31.695Z,6.18
2019-04-29T00:39:01.622Z,6.17
2019-04-29T00:39:31.689Z,6.17
2019-04-29T00:40:01.639Z,6.16
2019-04-29T00:40:31.695Z,6.17
2019-04-29T00:41:01.636Z,6.16
2019-04-29T00:41:31.683Z,6.14
2019-04-29T00:42:01.629Z,6.16
2019-04-29T00:42:31.685Z,6.14
2019-04-29T00:43:01.632Z,6.17
2019-04-29T00:43:31.687Z,6.13
2019-04-29T00:44:01.630Z,6.14
2019-04-29T00:44:31.725Z,6.13
2019-04-29T00:45:01.622Z,6.14
2019-04-29T00:45:31.686Z,6.17
2019-04-29T00:46:02.277Z,6.13
2019-04-29T00:46:31.691Z,6.16
2019-04-29T00:47:01.679Z,6.16
2019-04-29T00:47:31.684Z,6.14
2019-04-29T00:48:01.628Z,6.12
2019-04-29T00:48:31.683Z,6.13
2019-04-29T00:49:01.634Z,6.14
2019-04-29T00:49:31.679Z,6.12
2019-04-29T00:50:01.633Z,6.14
2019-04-29T00:50:31.683Z,6.12
2019-04-29T00:51:01.680Z,6.10
2019-04-29T00:51:31.684Z,6.12
2019-04-29T00:52:01.642Z,6.10
2019-04-29T00:52:31.685Z,6.10
2019-04-29T00:53:01.627Z,6.09
2019-04-29T00:53:31.692Z,6.10
2019-04-29T00:54:01.633Z,6.12
2019-04-29T00:54:31.687Z,6.10
2019-04-29T00:55:01.632Z,6.13
2019-04-29T00:55:31.683Z,6.12
2019-04-29T00:56:01.625Z,6.10
2019-04-29T00:56:32.156Z,6.12
2019-04-29T00:57:01.631Z,6.13
2019-04-29T00:57:31.696Z,6.13
2019-04-29T00:58:01.629Z,6.13
2019-04-29T00:58:31.684Z,6.14
2019-04-29T00:59:01.637Z,6.13
2019-04-29T00:59:31.689Z,6.13
2019-04-29T01:00:01.674Z,6.12
2019-04-29T01:00:31.684Z,6.13
2019-04-29T01:01:01.629Z,6.12
2019-04-29T01:01:31.682Z,6.14
2019-04-29T01:02:01.632Z,6.12
2019-04-29T01:02:31.688Z,6.13
2019-04-29T01:03:01.661Z,6.12
2019-04-29T01:03:31.681Z,6.12
2019-04-29T01:04:01.636Z,6.12
2019-04-29T01:04:31.688Z,6.07
2019-04-29T01:05:01.642Z,6.10
2019-04-29T01:05:31.688Z,6.10
2019-04-29T01:06:01.630Z,6.12
2019-04-29T01:06:31.694Z,6.09
2019-04-29T01:07:02.187Z,6.10
2019-04-29T01:07:31.821Z,6.10
2019-04-29T01:08:01.646Z,6.09
2019-04-29T01:08:31.695Z,6.10
2019-04-29T01:09:01.628Z,6.10
2019-04-29T01:09:31.690Z,6.09
2019-04-29T01:10:01.632Z,6.09
2019-04-29T01:10:31.691Z,6.09
2019-04-29T01:11:01.635Z,6.09
2019-04-29T01:11:31.696Z,6.10
2019-04-29T01:12:01.631Z,6.10
2019-04-29T01:12:31.691Z,6.09
2019-04-29T01:13:01.636Z,6.07
2019-04-29T01:13:31.684Z,6.07
2019-04-29T01:14:01.634Z,6.06
2019-04-29T01:14:31.701Z,6.06
2019-04-29T01:15:01.649Z,6.06
2019-04-29T01:15:31.710Z,6.06
2019-04-29T01:16:01.647Z,6.05
2019-04-29T01:16:31.692Z,6.05
2019-04-29T01:17:01.631Z,6.02
2019-04-29T01:17:32.159Z,6.02
2019-04-29T01:18:01.644Z,6.03
2019-04-29T01:18:31.689Z,6.00
2019-04-29T01:19:03.812Z,6.02
2019-04-29T01:19:31.686Z,5.99
2019-04-29T01:20:01.633Z,6.00
2019-04-29T01:20:31.700Z,5.99
2019-04-29T01:21:01.635Z,5.97
2019-04-29T01:21:31.767Z,5.96
2019-04-29T01:22:01.637Z,5.97
2019-04-29T01:22:31.692Z,5.96
2019-04-29T01:23:01.636Z,5.96
2019-04-29T01:23:31.694Z,5.95
2019-04-29T01:24:01.643Z,5.93
2019-04-29T01:24:31.693Z,5.93
2019-04-29T01:25:01.639Z,5.93
2019-04-29T01:25:31.695Z,5.93
2019-04-29T01:26:01.639Z,5.92
2019-04-29T01:26:31.697Z,5.90
2019-04-29T01:27:01.635Z,5.90
2019-04-29T01:27:31.694Z,5.89
2019-04-29T01:28:02.164Z,5.90
2019-04-29T01:28:31.770Z,5.92
2019-04-29T01:29:01.645Z,5.93
2019-04-29T01:29:31.698Z,5.93
2019-04-29T01:30:01.638Z,5.92
2019-04-29T01:30:31.699Z,5.92
2019-04-29T01:31:01.659Z,5.92
2019-04-29T01:31:31.695Z,5.93
2019-04-29T01:32:01.645Z,5.90
2019-04-29T01:32:31.697Z,5.93
2019-04-29T01:33:01.637Z,5.93
2019-04-29T01:33:31.694Z,5.92
2019-04-29T01:34:01.638Z,5.92
2019-04-29T01:34:31.694Z,5.90
2019-04-29T01:35:01.632Z,5.93
2019-04-29T01:35:31.692Z,5.90
2019-04-29T01:36:01.636Z,5.89
2019-04-29T01:36:31.696Z,5.92
2019-04-29T01:37:01.640Z,5.88
2019-04-29T01:37:31.692Z,5.88
2019-04-29T01:38:01.637Z,5.85
2019-04-29T01:38:32.138Z,5.86
2019-04-29T01:39:01.641Z,5.86
2019-04-29T01:39:31.704Z,5.85
2019-04-29T01:40:01.647Z,5.86
2019-04-29T01:40:31.700Z,5.84
2019-04-29T01:41:01.669Z,5.82
2019-04-29T01:41:31.704Z,5.86
2019-04-29T01:42:01.636Z,5.86
2019-04-29T01:42:31.690Z,5.85
2019-04-29T01:43:01.636Z,5.85
2019-04-29T01:43:31.702Z,5.84
2019-04-29T01:44:01.643Z,5.86
2019-04-29T01:44:31.702Z,5.84
2019-04-29T01:45:01.649Z,5.84
2019-04-29T01:45:31.697Z,5.84
2019-04-29T01:46:01.643Z,5.82
2019-04-29T01:46:31.727Z,5.82
2019-04-29T01:47:01.641Z,5.82
2019-04-29T01:47:31.692Z,5.80
2019-04-29T01:48:01.633Z,5.79
2019-04-29T01:48:31.701Z,5.79
2019-04-29T01:49:02.223Z,5.78
2019-04-29T01:49:31.705Z,5.80
2019-04-29T01:50:01.639Z,5.78
2019-04-29T01:50:31.698Z,5.76
2019-04-29T01:51:01.654Z,5.76
2019-04-29T01:51:31.709Z,5.78
2019-04-29T01:52:01.636Z,5.75
2019-04-29T01:52:31.691Z,5.75
2019-04-29T01:53:01.648Z,5.73
2019-04-29T01:53:31.714Z,5.72
2019-04-29T01:54:01.638Z,5.72
2019-04-29T01:54:31.700Z,5.72
2019-04-29T01:55:01.652Z,5.69
2019-04-29T01:55:31.764Z,5.72
2019-04-29T01:56:01.654Z,5.70
2019-04-29T01:56:31.761Z,5.68
2019-04-29T01:57:01.641Z,5.69
2019-04-29T01:57:31.711Z,5.68
2019-04-29T01:58:01.647Z,5.68
2019-04-29T01:58:31.692Z,5.68
2019-04-29T01:59:01.636Z,5.68
2019-04-29T01:59:32.102Z,5.68
2019-04-29T02:00:02.644Z,5.66
2019-04-29T02:00:31.698Z,5.68
2019-04-29T02:01:01.658Z,5.68
2019-04-29T02:01:31.709Z,5.66
2019-04-29T02:02:01.666Z,5.66
2019-04-29T02:02:31.698Z,5.68
2019-04-29T02:03:01.644Z,5.65
2019-04-29T02:03:31.692Z,5.65
2019-04-29T02:04:01.637Z,5.66
2019-04-29T02:04:31.692Z,5.65
2019-04-29T02:05:01.638Z,5.65
2019-04-29T02:05:31.698Z,5.63
2019-04-29T02:06:01.642Z,5.61
2019-04-29T02:06:31.698Z,5.63
2019-04-29T02:07:01.646Z,5.62
2019-04-29T02:07:31.702Z,5.59
2019-04-29T02:08:01.642Z,5.61
2019-04-29T02:08:31.706Z,5.58
2019-04-29T02:09:01.638Z,5.58
2019-04-29T02:09:31.700Z,5.59
2019-04-29T02:10:02.191Z,5.57
2019-04-29T02:10:31.704Z,5.55
2019-04-29T02:11:01.770Z,5.54
2019-04-29T02:11:31.706Z,5.54
2019-04-29T02:12:01.644Z,5.55
2019-04-29T02:12:31.705Z,5.51
2019-04-29T02:13:01.644Z,5.51
2019-04-29T02:13:31.696Z,5.52
2019-04-29T02:14:01.651Z,5.52
2019-04-29T02:14:31.698Z,5.51
2019-04-29T02:15:01.642Z,5.47
2019-04-29T02:15:31.698Z,5.47
2019-04-29T02:16:01.656Z,5.45
2019-04-29T02:16:31.709Z,5.45
2019-04-29T02:17:01.646Z,5.42
2019-04-29T02:17:31.722Z,5.44
2019-04-29T02:18:01.643Z,5.42
2019-04-29T02:18:31.752Z,5.40
2019-04-29T02:19:01.638Z,5.40
2019-04-29T02:19:31.704Z,5.35
2019-04-29T02:20:01.651Z,5.37
2019-04-29T02:20:32.148Z,5.35
2019-04-29T02:21:01.643Z,5.33
2019-04-29T02:21:31.783Z,5.33
2019-04-29T02:22:01.644Z,5.31
2019-04-29T02:22:31.711Z,5.30
2019-04-29T02:23:01.651Z,5.30
2019-04-29T02:23:31.710Z,5.24
2019-04-29T02:24:01.643Z,5.26
2019-04-29T02:24:31.702Z,5.26
2019-04-29T02:25:01.648Z,5.20
2019-04-29T02:25:31.705Z,5.20
2019-04-29T02:26:01.655Z,5.16
2019-04-29T02:26:31.704Z,5.20
2019-04-29T02:27:01.645Z,5.14
2019-04-29T02:27:31.698Z,5.17
2019-04-29T02:28:01.647Z,5.14
2019-04-29T02:28:31.703Z,5.14
2019-04-29T02:29:01.649Z,5.12
2019-04-29T02:29:31.702Z,5.10
2019-04-29T02:30:01.656Z,5.07
2019-04-29T02:30:31.712Z,5.10
2019-04-29T02:31:02.139Z,5.07
2019-04-29T02:31:31.708Z,5.07
2019-04-29T02:32:01.650Z,5.07
2019-04-29T02:32:31.712Z,5.03
2019-04-29T02:33:01.667Z,5.00
2019-04-29T02:33:31.848Z,5.03
2019-04-29T02:34:01.651Z,4.99
2019-04-29T02:34:31.701Z,4.99
2019-04-29T02:35:01.685Z,4.97
2019-04-29T02:35:31.701Z,4.96
2019-04-29T02:36:01.651Z,4.94
2019-04-29T02:36:31.706Z,4.92
2019-04-29T02:37:01.645Z,4.92
2019-04-29T02:37:31.704Z,4.89
2019-04-29T02:38:01.675Z,4.87
2019-04-29T02:38:31.714Z,4.87
2019-04-29T02:39:01.647Z,4.85
2019-04-29T02:39:31.702Z,4.83
2019-04-29T02:40:01.645Z,4.82
2019-04-29T02:40:31.703Z,4.80
2019-04-29T02:41:01.657Z,4.77
2019-04-29T02:41:32.113Z,4.79
2019-04-29T02:42:01.650Z,4.77
2019-04-29T02:42:31.707Z,4.76
2019-04-29T02:43:01.659Z,4.75
2019-04-29T02:43:31.712Z,4.73
2019-04-29T02:44:01.650Z,4.73
2019-04-29T02:44:31.707Z,4.71
2019-04-29T02:45:01.665Z,4.71
2019-04-29T02:45:31.704Z,4.71
2019-04-29T02:46:01.652Z,4.69
2019-04-29T02:46:31.714Z,4.68
2019-04-29T02:47:01.652Z,4.66
2019-04-29T02:47:31.713Z,4.66
2019-04-29T02:48:01.669Z,4.66
2019-04-29T02:48:34.399Z,4.66
2019-04-29T02:49:01.678Z,4.65
2019-04-29T02:49:31.708Z,4.66
2019-04-29T02:50:01.646Z,4.61
2019-04-29T02:50:31.721Z,4.62
2019-04-29T02:51:01.647Z,4.61
2019-04-29T02:51:31.727Z,4.61
2019-04-29T02:52:02.080Z,4.58
2019-04-29T02:52:31.704Z,4.58
2019-04-29T02:53:01.659Z,4.59
2019-04-29T02:53:31.710Z,4.58
2019-04-29T02:54:01.648Z,4.56
2019-04-29T02:54:31.843Z,4.58
2019-04-29T02:55:01.647Z,4.56
2019-04-29T02:55:31.716Z,4.55
2019-04-29T02:56:01.656Z,4.56
2019-04-29T02:56:31.722Z,4.56
2019-04-29T02:57:01.662Z,4.54
2019-04-29T02:57:31.710Z,4.54
2019-04-29T02:58:01.658Z,4.55
2019-04-29T02:58:31.713Z,4.54
2019-04-29T02:59:01.654Z,4.54
2019-04-29T02:59:31.711Z,4.54
2019-04-29T03:00:01.662Z,4.54
2019-04-29T03:00:31.707Z,4.55
2019-04-29T03:01:01.671Z,4.55
2019-04-29T03:01:31.717Z,4.54
2019-04-29T03:02:01.665Z,4.55
2019-04-29T03:02:32.201Z,4.54
2019-04-29T03:03:01.653Z,4.56
2019-04-29T03:03:31.707Z,4.55
2019-04-29T03:04:01.655Z,4.58
2019-04-29T03:04:31.710Z,4.56
2019-04-29T03:05:01.654Z,4.58
2019-04-29T03:05:31.704Z,4.58
2019-04-29T03:06:01.656Z,4.55
2019-04-29T03:06:31.712Z,4.56
2019-04-29T03:07:01.668Z,4.54
2019-04-29T03:07:31.724Z,4.54
2019-04-29T03:08:01.656Z,4.54
2019-04-29T03:08:31.707Z,4.52
2019-04-29T03:09:01.709Z,4.55
2019-04-29T03:09:31.716Z,4.54
2019-04-29T03:10:01.676Z,4.51
2019-04-29T03:10:31.714Z,4.51
2019-04-29T03:11:01.660Z,4.51
2019-04-29T03:11:31.713Z,4.51
2019-04-29T03:12:02.058Z,4.48
2019-04-29T03:12:31.718Z,4.48
2019-04-29T03:13:02.117Z,4.45
2019-04-29T03:13:31.711Z,4.48
2019-04-29T03:14:01.668Z,4.48
2019-04-29T03:14:31.720Z,4.48
2019-04-29T03:15:01.741Z,4.47
2019-04-29T03:15:31.713Z,4.48
2019-04-29T03:16:01.658Z,4.47
2019-04-29T03:16:31.720Z,4.47
2019-04-29T03:17:01.674Z,4.45
2019-04-29T03:17:31.716Z,4.45
2019-04-29T03:18:01.697Z,4.47
2019-04-29T03:18:31.722Z,4.45
2019-04-29T03:19:01.671Z,4.47
2019-04-29T03:19:31.719Z,4.41
2019-04-29T03:20:01.658Z,4.44
2019-04-29T03:20:31.715Z,4.43
2019-04-29T03:21:01.656Z,4.41
2019-04-29T03:21:31.786Z,4.40
2019-04-29T03:22:01.657Z,4.40
2019-04-29T03:22:31.712Z,4.41
2019-04-29T03:23:01.664Z,4.38
2019-04-29T03:23:32.080Z,4.38
2019-04-29T03:24:01.663Z,4.37
2019-04-29T03:24:31.737Z,4.34
2019-04-29T03:25:01.689Z,4.34
2019-04-29T03:25:31.729Z,4.33
2019-04-29T03:26:01.656Z,4.35
2019-04-29T03:26:33.265Z,4.34
2019-04-29T03:27:01.667Z,4.30
2019-04-29T03:27:31.718Z,4.30
2019-04-29T03:28:01.662Z,4.28
2019-04-29T03:28:31.718Z,4.30
2019-04-29T03:29:01.659Z,4.26
2019-04-29T03:29:31.716Z,4.27
2019-04-29T03:30:01.666Z,4.26
2019-04-29T03:30:31.727Z,4.26
2019-04-29T03:31:01.691Z,4.26
2019-04-29T03:31:38.542Z,4.27
2019-04-29T03:32:01.660Z,4.24
2019-04-29T03:32:31.947Z,4.27
2019-04-29T03:33:01.665Z,4.27
2019-04-29T03:33:31.720Z,4.26
2019-04-29T03:34:02.163Z,4.24
2019-04-29T03:34:31.719Z,4.24
2019-04-29T03:35:01.669Z,4.26
2019-04-29T03:35:31.730Z,4.26
2019-04-29T03:36:01.671Z,4.26
2019-04-29T03:36:31.718Z,4.26
2019-04-29T03:37:01.786Z,4.26
2019-04-29T03:37:31.720Z,4.24
2019-04-29T03:38:01.725Z,4.26
2019-04-29T03:38:31.718Z,4.24
2019-04-29T03:39:01.661Z,4.24
2019-04-29T03:39:31.717Z,4.22
2019-04-29T03:40:01.703Z,4.26
2019-04-29T03:40:31.729Z,4.26
2019-04-29T03:41:01.659Z,4.26
2019-04-29T03:41:31.716Z,4.28
2019-04-29T03:42:01.664Z,4.26
2019-04-29T03:42:31.728Z,4.26
2019-04-29T03:43:01.668Z,4.28
2019-04-29T03:43:31.724Z,4.28
2019-04-29T03:44:01.669Z,4.28
2019-04-29T03:44:32.163Z,4.28
2019-04-29T03:45:01.673Z,4.28
2019-04-29T03:45:31.723Z,4.28
2019-04-29T03:46:01.663Z,4.28
2019-04-29T03:46:31.727Z,4.33
2019-04-29T03:47:01.669Z,4.31
2019-04-29T03:47:31.720Z,4.33
2019-04-29T03:48:01.661Z,4.31
2019-04-29T03:48:31.721Z,4.31
2019-04-29T03:49:01.662Z,4.33
2019-04-29T03:49:31.716Z,4.33
2019-04-29T03:50:01.672Z,4.34
2019-04-29T03:50:31.721Z,4.35
2019-04-29T03:51:01.666Z,4.34
2019-04-29T03:51:31.727Z,4.38
2019-04-29T03:52:01.738Z,4.35
2019-04-29T03:52:31.718Z,4.37
2019-04-29T03:53:01.673Z,4.38
2019-04-29T03:53:31.729Z,4.37
2019-04-29T03:54:01.662Z,4.38
2019-04-29T03:54:31.723Z,4.38
2019-04-29T03:55:02.154Z,4.41
2019-04-29T03:55:39.328Z,4.43
2019-04-29T03:56:01.664Z,4.41
2019-04-29T03:56:31.719Z,4.41
2019-04-29T03:57:01.667Z,4.43
2019-04-29T03:57:31.725Z,4.43
2019-04-29T03:58:01.830Z,4.44
2019-04-29T03:58:31.723Z,4.44
2019-04-29T03:59:01.675Z,4.44
2019-04-29T03:59:31.722Z,4.48
2019-04-29T04:00:01.666Z,4.49
2019-04-29T04:00:31.922Z,4.48
2019-04-29T04:01:01.664Z,4.51
2019-04-29T04:01:31.737Z,4.51
2019-04-29T04:02:01.666Z,4.54
2019-04-29T04:02:31.719Z,4.54
2019-04-29T04:03:01.664Z,4.56
2019-04-29T04:03:31.742Z,4.54
2019-04-29T04:04:01.667Z,4.58
2019-04-29T04:04:31.723Z,4.58
2019-04-29T04:05:01.663Z,4.54
2019-04-29T04:05:32.196Z,4.56
2019-04-29T04:06:01.667Z,4.56
2019-04-29T04:06:31.728Z,4.56
2019-04-29T04:07:04.109Z,4.59
2019-04-29T04:07:31.725Z,4.59
2019-04-29T04:08:01.667Z,4.59
2019-04-29T04:08:31.726Z,4.59
2019-04-29T04:09:05.779Z,4.59
2019-04-29T04:09:31.742Z,4.61
2019-04-29T04:10:01.666Z,4.61
2019-04-29T04:10:31.724Z,4.64
2019-04-29T04:11:01.685Z,4.62
2019-04-29T04:11:31.724Z,4.62
2019-04-29T04:12:01.667Z,4.62
2019-04-29T04:12:31.723Z,4.64
2019-04-29T04:13:01.675Z,4.65
2019-04-29T04:13:31.739Z,4.64
2019-04-29T04:14:01.674Z,4.66
2019-04-29T04:14:31.728Z,4.64
2019-04-29T04:15:01.677Z,4.66
2019-04-29T04:15:31.726Z,4.66
2019-04-29T04:16:02.225Z,4.68
2019-04-29T04:16:31.724Z,4.66
2019-04-29T04:17:01.666Z,4.68
2019-04-29T04:17:31.724Z,4.68
2019-04-29T04:18:01.676Z,4.68
2019-04-29T04:18:31.761Z,4.69
2019-04-29T04:19:01.676Z,4.69
2019-04-29T04:19:31.740Z,4.72
2019-04-29T04:20:01.695Z,4.72
2019-04-29T04:20:31.726Z,4.72
2019-04-29T04:21:02.718Z,4.75
2019-04-29T04:21:31.807Z,4.73
2019-04-29T04:22:01.671Z,4.75
2019-04-29T04:22:31.725Z,4.77
2019-04-29T04:23:01.671Z,4.77
2019-04-29T04:23:31.729Z,4.79
2019-04-29T04:24:01.674Z,4.76
2019-04-29T04:24:31.726Z,4.80
2019-04-29T04:25:01.676Z,4.79
2019-04-29T04:25:31.724Z,4.80
2019-04-29T04:26:01.670Z,4.82
2019-04-29T04:26:32.123Z,4.80
2019-04-29T04:27:01.672Z,4.79
2019-04-29T04:27:31.730Z,4.80
2019-04-29T04:28:01.668Z,4.80
2019-04-29T04:28:31.731Z,4.79
2019-04-29T04:29:01.683Z,4.82
2019-04-29T04:29:31.729Z,4.83
2019-04-29T04:30:01.681Z,4.82
2019-04-29T04:30:31.734Z,4.83
2019-04-29T04:31:04.219Z,4.83
2019-04-29T04:31:31.731Z,4.85
2019-04-29T04:32:01.678Z,4.83
2019-04-29T04:32:31.739Z,4.82
2019-04-29T04:33:01.680Z,4.80
2019-04-29T04:33:31.735Z,4.82
2019-04-29T04:34:01.691Z,4.83
2019-04-29T04:34:31.732Z,4.83
2019-04-29T04:35:01.766Z,4.83
2019-04-29T04:35:31.728Z,4.85
2019-04-29T04:36:01.673Z,4.83
2019-04-29T04:36:31.735Z,4.85
2019-04-29T04:37:02.197Z,4.83
2019-04-29T04:37:31.734Z,4.86
2019-04-29T04:38:01.680Z,4.85
2019-04-29T04:38:31.739Z,4.87
2019-04-29T04:39:01.674Z,4.89
2019-04-29T04:39:31.736Z,4.89
2019-04-29T04:40:01.679Z,4.89
2019-04-29T04:40:31.869Z,4.87
2019-04-29T04:41:01.682Z,4.89
2019-04-29T04:41:31.754Z,4.87
2019-04-29T04:42:01.678Z,4.87
2019-04-29T04:42:31.735Z,4.89
2019-04-29T04:43:01.683Z,4.92
2019-04-29T04:43:31.726Z,4.90
2019-04-29T04:44:01.688Z,4.92
2019-04-29T04:44:31.739Z,4.92
2019-04-29T04:45:01.682Z,4.94
2019-04-29T04:45:31.751Z,4.93
2019-04-29T04:46:01.683Z,4.94
2019-04-29T04:46:31.737Z,4.93
2019-04-29T04:47:01.684Z,4.93
2019-04-29T04:47:32.346Z,4.94
2019-04-29T04:48:01.682Z,4.93
2019-04-29T04:48:31.736Z,4.96
2019-04-29T04:49:01.685Z,4.97
2019-04-29T04:49:31.744Z,4.97
2019-04-29T04:50:01.676Z,4.97
2019-04-29T04:50:31.743Z,4.99
2019-04-29T04:51:01.682Z,5.00
2019-04-29T04:51:31.738Z,5.00
2019-04-29T04:52:01.675Z,4.99
2019-04-29T04:52:31.737Z,4.99
2019-04-29T04:53:01.677Z,4.99
2019-04-29T04:53:31.733Z,5.02
2019-04-29T04:54:01.676Z,5.03
2019-04-29T04:54:31.764Z,5.04
2019-04-29T04:55:01.676Z,5.04
2019-04-29T04:55:31.733Z,5.07
2019-04-29T04:56:01.672Z,5.06
2019-04-29T04:56:31.730Z,5.07
2019-04-29T04:57:01.669Z,5.07
2019-04-29T04:57:31.734Z,5.09
2019-04-29T04:58:02.185Z,5.09
2019-04-29T04:58:31.745Z,5.12
2019-04-29T04:59:01.677Z,5.10
2019-04-29T04:59:31.745Z,5.14
2019-04-29T05:00:01.684Z,5.17
2019-04-29T05:00:31.738Z,5.17
2019-04-29T05:01:01.680Z,5.17
2019-04-29T05:01:31.892Z,5.19
2019-04-29T05:02:01.702Z,5.19
2019-04-29T05:02:31.741Z,5.21
2019-04-29T05:03:01.687Z,5.21
2019-04-29T05:03:31.738Z,5.24
2019-04-29T05:04:01.684Z,5.27
2019-04-29T05:04:31.732Z,5.30
2019-04-29T05:05:01.701Z,5.28
2019-04-29T05:05:31.738Z,5.30
2019-04-29T05:06:01.677Z,5.34
2019-04-29T05:06:31.736Z,5.35
2019-04-29T05:07:01.677Z,5.38
2019-04-29T05:07:31.742Z,5.40
2019-04-29T05:08:01.688Z,5.42
2019-04-29T05:08:32.481Z,5.41
2019-04-29T05:09:01.686Z,5.45
2019-04-29T05:09:31.741Z,5.50
2019-04-29T05:10:01.678Z,5.50
2019-04-29T05:10:31.738Z,5.55
2019-04-29T05:11:01.675Z,5.55
2019-04-29T05:11:31.737Z,5.61
2019-04-29T05:12:01.680Z,5.61
2019-04-29T05:12:31.734Z,5.63
2019-04-29T05:13:01.688Z,5.65
2019-04-29T05:13:31.747Z,5.69
2019-04-29T05:14:01.682Z,5.70
2019-04-29T05:14:31.742Z,5.72
2019-04-29T05:15:01.679Z,5.76
2019-04-29T05:15:31.742Z,5.76
2019-04-29T05:16:01.682Z,5.78
2019-04-29T05:16:31.740Z,5.79
2019-04-29T05:17:01.689Z,5.85
2019-04-29T05:17:31.739Z,5.84
2019-04-29T05:18:01.678Z,5.88
2019-04-29T05:18:31.741Z,5.90
2019-04-29T05:19:02.130Z,5.92
2019-04-29T05:19:31.749Z,5.93
2019-04-29T05:20:01.680Z,5.97
2019-04-29T05:20:31.818Z,5.97
2019-04-29T05:21:01.683Z,5.97
2019-04-29T05:21:31.837Z,5.97
2019-04-29T05:22:01.687Z,6.00
2019-04-29T05:22:31.737Z,6.02
2019-04-29T05:23:01.757Z,6.02
2019-04-29T05:23:31.743Z,6.03
2019-04-29T05:24:01.845Z,6.03
2019-04-29T05:24:31.742Z,6.03
2019-04-29T05:25:01.681Z,6.05
2019-04-29T05:25:31.733Z,6.06
2019-04-29T05:26:01.690Z,6.09
2019-04-29T05:26:31.737Z,6.05
2019-04-29T05:27:01.683Z,6.06
2019-04-29T05:27:31.735Z,6.03
2019-04-29T05:28:01.680Z,6.09
2019-04-29T05:28:31.742Z,6.09
2019-04-29T05:29:01.690Z,6.09
2019-04-29T05:29:32.169Z,6.07
2019-04-29T05:30:01.681Z,6.09
2019-04-29T05:30:31.737Z,6.07
2019-04-29T05:31:01.689Z,6.06
2019-04-29T05:31:31.743Z,6.06
2019-04-29T05:32:01.686Z,6.10
2019-04-29T05:32:31.750Z,6.05
2019-04-29T05:33:01.687Z,6.09
2019-04-29T05:33:31.747Z,6.10
2019-04-29T05:34:01.691Z,6.12
2019-04-29T05:34:31.746Z,6.10
2019-04-29T05:35:01.692Z,6.13
2019-04-29T05:35:31.742Z,6.14
2019-04-29T05:36:03.420Z,6.14
2019-04-29T05:36:33.972Z,6.16
2019-04-29T05:37:01.687Z,6.18
2019-04-29T05:37:31.743Z,6.18
2019-04-29T05:38:01.687Z,6.20
2019-04-29T05:38:31.743Z,6.23
2019-04-29T05:39:01.682Z,6.23
2019-04-29T05:39:31.744Z,6.27
2019-04-29T05:40:02.102Z,6.28
2019-04-29T05:40:31.750Z,6.27
2019-04-29T05:41:01.682Z,6.28
2019-04-29T05:41:34.686Z,6.33
2019-04-29T05:42:01.681Z,6.31
2019-04-29T05:42:31.743Z,6.38
2019-04-29T05:43:04.822Z,6.34
2019-04-29T05:43:33.425Z,6.38
2019-04-29T05:44:01.692Z,6.40
2019-04-29T05:44:31.756Z,6.44
2019-04-29T05:45:01.688Z,6.40
2019-04-29T05:45:31.753Z,6.44
2019-04-29T05:46:01.686Z,6.44
2019-04-29T05:46:31.744Z,6.44
2019-04-29T05:47:01.685Z,6.45
2019-04-29T05:47:31.742Z,6.43
2019-04-29T05:48:01.693Z,6.44
2019-04-29T05:48:33.110Z,6.43
2019-04-29T05:49:02.310Z,6.45
2019-04-29T05:49:31.743Z,6.47
2019-04-29T05:50:01.693Z,6.47
2019-04-29T05:50:32.113Z,6.52
2019-04-29T05:51:01.685Z,6.55
2019-04-29T05:51:31.741Z,6.56
2019-04-29T05:52:03.140Z,6.60
2019-04-29T05:52:34.624Z,6.61
2019-04-29T05:53:01.684Z,6.64
2019-04-29T05:53:31.747Z,6.64
2019-04-29T05:54:01.698Z,6.67
2019-04-29T05:54:33.426Z,6.64
2019-04-29T05:55:01.802Z,6.64
2019-04-29T05:55:31.744Z,6.64
2019-04-29T05:56:01.685Z,6.64
2019-04-29T05:56:31.740Z,6.65
2019-04-29T05:57:01.689Z,6.64
2019-04-29T05:57:31.747Z,6.64
2019-04-29T05:58:03.874Z,6.69
2019-04-29T05:58:32.712Z,6.67
2019-04-29T05:59:01.687Z,6.71
2019-04-29T05:59:31.748Z,6.71
2019-04-29T06:00:01.691Z,6.72
2019-04-29T06:00:31.747Z,6.74
2019-04-29T06:01:02.194Z,6.71
2019-04-29T06:01:31.757Z,6.69
2019-04-29T06:02:01.696Z,6.67
2019-04-29T06:02:35.093Z,6.65
2019-04-29T06:03:01.905Z,6.67
2019-04-29T06:03:33.418Z,6.68
2019-04-29T06:04:01.698Z,6.71
2019-04-29T06:04:31.748Z,6.74
2019-04-29T06:05:01.695Z,6.75
2019-04-29T06:05:31.906Z,6.78
2019-04-29T06:06:01.693Z,6.76
2019-04-29T06:06:31.750Z,6.78
2019-04-29T06:07:01.685Z,6.78
2019-04-29T06:07:31.775Z,6.75
2019-04-29T06:08:02.850Z,6.79
2019-04-29T06:08:34.382Z,6.78
2019-04-29T06:09:01.688Z,6.79
2019-04-29T06:09:31.752Z,6.79
2019-04-29T06:10:01.695Z,6.78
2019-04-29T06:10:31.747Z,6.78
2019-04-29T06:11:01.702Z,6.78
2019-04-29T06:11:32.168Z,6.78
2019-04-29T06:12:01.690Z,6.79
2019-04-29T06:12:31.751Z,6.79
2019-04-29T06:13:01.693Z,6.82
2019-04-29T06:13:31.758Z,6.81
2019-04-29T06:14:01.689Z,6.81
2019-04-29T06:14:31.747Z,6.81
2019-04-29T06:15:01.690Z,6.81
2019-04-29T06:15:31.751Z,6.78
2019-04-29T06:16:01.692Z,6.72
2019-04-29T06:16:31.766Z,6.68
2019-04-29T06:17:02.496Z,6.67
2019-04-29T06:17:31.756Z,6.68
2019-04-29T06:18:01.693Z,6.61
2019-04-29T06:18:31.761Z,6.60
2019-04-29T06:19:05.707Z,6.61
2019-04-29T06:19:35.055Z,6.56
2019-04-29T06:20:01.690Z,6.58
2019-04-29T06:20:31.756Z,6.60
2019-04-29T06:21:08.589Z,6.58
2019-04-29T06:21:31.824Z,6.58
2019-04-29T06:22:03.852Z,6.56
2019-04-29T06:22:31.752Z,6.55
2019-04-29T06:23:01.703Z,6.56
2019-04-29T06:23:31.749Z,6.52
2019-04-29T06:24:04.149Z,6.55
2019-04-29T06:24:31.751Z,6.54
2019-04-29T06:25:01.692Z,6.55
2019-04-29T06:25:31.753Z,6.52
2019-04-29T06:26:01.694Z,6.55
2019-04-29T06:26:31.871Z,6.58
2019-04-29T06:27:01.721Z,6.60
2019-04-29T06:27:33.325Z,6.64
2019-04-29T06:28:01.694Z,6.69
2019-04-29T06:28:31.750Z,6.72
2019-04-29T06:29:01.695Z,6.75
2019-04-29T06:29:31.905Z,6.78
2019-04-29T06:30:03.058Z,6.79
2019-04-29T06:30:31.768Z,6.79
2019-04-29T06:31:01.709Z,6.83
2019-04-29T06:31:31.796Z,6.85
2019-04-29T06:32:01.697Z,6.93
2019-04-29T06:32:32.123Z,6.96
2019-04-29T06:33:01.699Z,7.04
2019-04-29T06:33:31.749Z,7.07
2019-04-29T06:34:05.077Z,7.09
2019-04-29T06:34:35.415Z,7.09
2019-04-29T06:35:01.703Z,7.06
2019-04-29T06:35:31.760Z,7.06
2019-04-29T06:36:01.707Z,7.06
2019-04-29T06:36:31.759Z,7.07
2019-04-29T06:37:01.698Z,7.10
2019-04-29T06:37:31.755Z,7.10
2019-04-29T06:38:01.706Z,7.13
2019-04-29T06:38:31.753Z,7.13
2019-04-29T06:39:01.699Z,7.04